La Verne Past Weather

Last 30 Days

 
High: 59ºf @8:55 AM    Low: 55ºf @2:55 AM     Approx. Precipitation / Rain Total: in.
Time (PDT)Temp. (ºf)Humidity (%)Dew Point (ºf)Barometer (inHG)Wind Speed (mph)Wind DirectionWind Gust (mph)1hr. Precip / Rain Total (in.)Snow Depth
8:55 AM598052.84-1.74sw4.34--
7:55 AM578953.79-0.87ssw4.34--
6:55 AM569354-1.74sw3.48--
5:55 AM559453.3-1.74sw4.34--
4:55 AM569554.59---3.48--
3:55 AM559453.3-1.74sw3.48--
2:55 AM559453.3-0.87s5.21--
1:55 AM559453.3-4.34wnw6.08--
12:55 AM569354-3.48w6.08--
High: 69ºf @3:55 PM    Low: 54ºf @3:55 AM     Approx. Precipitation / Rain Total: in.
Time (PDT)Temp. (ºf)Humidity (%)Dew Point (ºf)Barometer (inHG)Wind Speed (mph)Wind DirectionWind Gust (mph)1hr. Precip / Rain Total (in.)Snow Depth
11:55 PM569153.41-3.48wsw7.82--
10:55 PM578853.48-4.34wsw9.56--
9:55 PM579254.7-3.48sw8.69--
8:55 PM578953.79-4.34sw12.17--
7:55 PM598253.51-6.95wsw13.03--
6:55 PM617653.38-9.56wsw18.25--
5:55 PM646853.22-8.69wsw16.51--
4:55 PM685852.66-8.69sw18.25--
3:55 PM695552.15-8.69sw16.51--
2:55 PM695451.65-7.82wsw16.51--
1:55 PM675751.26-5.21sw13.03--
12:55 PM656151.22-3.48sw11.3--
11:55 AM636551.04-5.21wnw7.82--
10:55 AM608053.81-3.48wsw6.08--
9:55 AM588754.15-2.61sw6.95--
8:55 AM579455.29-3.48wsw7.82--
7:55 AM5610056-3.48sw7.82--
6:55 AM5410054-3.48sw7.82--
5:55 AM5410054-2.61ssw6.95--
4:55 AM5410054-1.74sw7.82--
3:55 AM5410054-4.34w7.82--
2:55 AM5410054-3.48wsw6.95--
1:55 AM5510055-3.48sw6.95--
12:55 AM5610056-2.61wsw6.95--
High: 61ºf @3:55 PM    Low: 53ºf @6:55 AM     Approx. Precipitation / Rain Total: in.
Time (PDT)Temp. (ºf)Humidity (%)Dew Point (ºf)Barometer (inHG)Wind Speed (mph)Wind DirectionWind Gust (mph)1hr. Precip / Rain Total (in.)Snow Depth
11:55 PM5510055-4.34wsw6.95--
10:55 PM5610056-2.61w5.21--
9:55 PM5510055-4.34w6.95--
8:55 PM5510055-4.34w8.69--
7:55 PM5610056-4.34wsw7.82--
6:55 PM5610056-4.34wsw7.82--
5:55 PM5610056-5.21wsw11.3--
4:55 PM589255.69-6.95wsw11.3--
3:55 PM617753.73-6.08w9.56--
11:55 AM608254.49-3.48wsw7.82--
10:55 AM579655.87-4.34wsw6.08--
9:55 AM5510055-3.48wsw6.08--
8:55 AM5510055-3.48wsw6.08--
7:55 AM5410054-3.48wsw6.08--
6:55 AM5310053-3.48wsw6.95--
5:55 AM5310053-3.48sw6.95--
4:55 AM5410054-4.34wsw7.82--
3:55 AM5410054-3.48ssw6.95--
2:55 AM5410054-4.34wsw6.08--
1:55 AM5510055-2.61ssw7.82--
12:55 AM569955.72-3.48wsw6.08--
High: 72ºf @3:55 PM    Low: 51ºf @3:55 AM     Approx. Precipitation / Rain Total: in.
Time (PDT)Temp. (ºf)Humidity (%)Dew Point (ºf)Barometer (inHG)Wind Speed (mph)Wind DirectionWind Gust (mph)1hr. Precip / Rain Total (in.)Snow Depth
11:55 PM569855.44-2.61wsw8.69--
10:55 PM579655.87-4.34wsw9.56--
3:55 PM725655.43-8.69sw14.77--
10:55 AM657255.75-5.21ssw8.69--
9:55 AM647656.28-2.61ssw6.08--
8:55 AM599858.43-0.87n4.34--
7:55 AM5510055-0.87se2.61--
6:55 AM5310053-2.61nnw3.48--
5:55 AM5210052-2.61nnw4.34--
4:55 AM5210052-1.74nnw3.48--
3:55 AM5110051-0.87wnw2.61--
2:55 AM519850.45---2.61--
1:55 AM529751.17---3.48--
12:55 AM549753.17-0.87wsw3.48--
High: 80ºf @3:55 PM    Low: 50ºf @2:55 AM     Approx. Precipitation / Rain Total: in.
Time (PDT)Temp. (ºf)Humidity (%)Dew Point (ºf)Barometer (inHG)Wind Speed (mph)Wind DirectionWind Gust (mph)1hr. Precip / Rain Total (in.)Snow Depth
11:55 PM579354.99-1.74sse4.34--
10:55 PM578452.21-0.87nnw3.48--
9:55 PM617954.44-3.48sw6.08--
7:55 PM676353.98-5.21wsw12.17--
6:55 PM725253.4-5.21ssw13.03--
5:55 PM774654.61-6.08wsw13.9--
4:55 PM794253.92-7.82wsw14.77--
3:55 PM804154.16-7.82sw15.64--
2:55 PM794253.92-7.82sw14.77--
1:55 PM764854.87-7.82sw12.17--
12:55 PM735354.84-6.95ssw11.3--
11:55 AM706055.46-5.21ssw8.69--
10:55 AM666955.53-2.61s6.95--
9:55 AM637655.31-2.61sse6.08--
8:55 AM589155.39-0.87nne3.48--
7:55 AM5510055-1.74nne3.48--
6:55 AM5310053-2.61ne4.34--
5:55 AM5010050-1.74nw5.21--
4:55 AM5010050-2.61nnw3.48--
3:55 AM509949.73---3.48--
2:55 AM509949.73-0.87nne4.34--
1:55 AM509749.18---4.34--
12:55 AM519549.62-1.74nw4.34--
High: 75ºf @3:55 PM    Low: 49ºf @4:55 AM     Approx. Precipitation / Rain Total: in.
Time (PDT)Temp. (ºf)Humidity (%)Dew Point (ºf)Barometer (inHG)Wind Speed (mph)Wind DirectionWind Gust (mph)1hr. Precip / Rain Total (in.)Snow Depth
11:55 PM539551.61-1.74wnw5.21--
10:55 PM549051.13-0.87nw3.48--
9:55 PM578652.85-1.74w4.34--
8:55 PM607853.12-3.48w6.95--
7:55 PM637053.06-3.48wsw12.17--
6:55 PM675952.19-7.82wsw13.03--
5:55 PM715252.48-7.82wsw13.9--
4:55 PM734751.56-7.82sw13.9--
3:55 PM754652.8-6.08sw13.03--
2:55 PM735153.79-4.34sw10.43--
1:55 PM695853.6-5.21ssw9.56--
12:55 PM666754.72-3.48sw7.82--
11:55 AM618155.12-2.61sw7.82--
10:55 AM608655.8-3.48sw6.95--
9:55 AM599056.07-0.87se4.34--
8:55 AM569955.72-2.61w4.34--
7:55 AM5510055-0.87n3.48--
6:55 AM5310053-2.61nnw4.34--
5:55 AM5110051-0.87w2.61--
4:55 AM4910049---3.48--
3:55 AM499748.19---1.74--
2:55 AM529851.45---1.74--
1:55 AM549652.88---1.74--
12:55 AM549352.02-1.74nne2.61--
High: 78ºf @2:55 PM    Low: 52ºf @1:55 AM     Approx. Precipitation / Rain Total: in.
Time (PDT)Temp. (ºf)Humidity (%)Dew Point (ºf)Barometer (inHG)Wind Speed (mph)Wind DirectionWind Gust (mph)1hr. Precip / Rain Total (in.)Snow Depth
11:55 PM559152.42---3.48--
10:55 PM568651.87-2.61nnw4.34--
9:55 PM598353.84-2.61w6.08--
8:55 PM637454.58-3.48sw8.69--
7:55 PM666654.31-5.21wsw10.43--
6:55 PM715554.01-6.08sw14.77--
5:55 PM754954.53-7.82sw13.03--
4:55 PM774554.01-8.69wsw14.77--
3:55 PM774252.13-7.82wsw13.03--
2:55 PM783951.01-6.95sw14.77--
1:55 PM754250.33-6.95sw13.03--
12:55 PM744651.89-6.95ssw13.9--
11:55 AM724851.22-6.08sw11.3--
10:55 AM695652.64-5.21sw11.3--
9:55 AM666453.47-5.21ssw9.56--
8:55 AM636751.86-4.34ssw9.56--
7:55 AM607250.94-2.61ssw7.82--
6:55 AM566845.59-1.74w4.34--
5:55 AM546542.5-0.87n5.21--
4:55 AM536541.55---3.48--
3:55 AM536742.34-0.87ne2.61--
2:55 AM536742.34---3.48--
1:55 AM526841.77-0.87n3.48--
12:55 AM556543.45-1.74n4.34--
High: 85ºf @12:55 PM    Low: 58ºf @11:55 PM     Approx. Precipitation / Rain Total: in.
Time (PDT)Temp. (ºf)Humidity (%)Dew Point (ºf)Barometer (inHG)Wind Speed (mph)Wind DirectionWind Gust (mph)1hr. Precip / Rain Total (in.)Snow Depth
11:55 PM586144.63---3.48--
10:55 PM605543.78-2.61nw4.34--
9:55 PM625445.16---4.34--
8:55 PM664946.28-0.87n10.43--
7:55 PM724348.27-5.21sw17.38--
6:55 PM792540.15-7.82wsw14.77--
5:55 PM813046.62-8.69wsw14.77--
4:55 PM803045.76-9.56wsw17.38--
3:55 PM823047.48-9.56wsw17.38--
2:55 PM812642.86-7.82wsw14.77--
1:55 PM842038.59-6.95wsw13.9--
12:55 PM851836.72-6.95sw13.03--
11:55 AM841734.48-6.95sw12.17--
10:55 AM821834.3-4.34ssw9.56--
9:55 AM802136.54-2.61sse5.21--
8:55 AM752738.74-1.74sw4.34--
7:55 AM723139.7-0.87ne4.34--
6:55 AM653335.19-2.61nne4.34--
5:55 AM603834.32-1.74nne4.34--
4:55 AM613533.15-2.61ne4.34--
3:55 AM633031.08-1.74nne5.21--
2:55 AM642931.11-2.61nne4.34--
1:55 AM653032.81-2.61ne4.34--
12:55 AM672832.82-2.61ne5.21--
High: 94ºf @3:55 PM    Low: 59ºf @5:55 AM     Approx. Precipitation / Rain Total: in.
Time (PDT)Temp. (ºf)Humidity (%)Dew Point (ºf)Barometer (inHG)Wind Speed (mph)Wind DirectionWind Gust (mph)1hr. Precip / Rain Total (in.)Snow Depth
11:55 PM673034.54-2.61ne4.34--
10:55 PM683237.03-1.74ne4.34--
9:55 PM702936.27-2.61n6.08--
8:55 PM742434.91-0.87nnw5.21--
7:55 PM791831.86-3.48wsw10.43--
6:55 PM861532.95-6.95wsw13.03--
5:55 PM901637.75-7.82sw14.77--
4:55 PM931130.71-6.08sw13.03--
3:55 PM941233.63-7.82wsw15.64--
2:55 PM921232.09-6.95sw13.9--
1:55 PM931130.71-6.08sw11.3--
12:55 PM911026.86-3.48ssw7.82--
11:55 AM891229.78-3.48ssw9.56--
10:55 AM861532.95-3.48sw6.08--
9:55 AM811732.06-2.61sw6.08--
8:55 AM772032.84-1.74s4.34--
7:55 AM762638.62---3.48--
6:55 AM653335.19-1.74ne5.21--
5:55 AM593934.08-2.61ne5.21--
4:55 AM623332.57-2.61nne5.21--
3:55 AM633232.68-1.74nne4.34--
2:55 AM623433.31-2.61nne6.08--
1:55 AM623433.31-1.74n4.34--
12:55 AM672630.98-3.48ne6.08--
High: 90ºf @3:55 PM    Low: 53ºf @5:55 AM     Approx. Precipitation / Rain Total: in.
Time (PDT)Temp. (ºf)Humidity (%)Dew Point (ºf)Barometer (inHG)Wind Speed (mph)Wind DirectionWind Gust (mph)1hr. Precip / Rain Total (in.)Snow Depth
11:55 PM653536.68-2.61ene4.34--
10:55 PM683035.4-2.61nne6.08--
9:55 PM692935.41-2.61nne5.21--
8:55 PM682934.55-4.34n6.08--
7:55 PM752132.41-0.87wsw12.17--
6:55 PM811732.06-7.82wsw13.9--
5:55 PM861634.56-8.69wsw15.64--
4:55 PM891331.75-7.82sw13.9--
3:55 PM901128.42-6.08sw11.3--
2:55 PM901128.42-6.08sw10.43--
1:55 PM881229.01-4.34sw9.56--
12:55 PM851328.64-4.34ssw9.56--
11:55 AM821428.09-4.34wsw8.69--
10:55 AM781526.6-3.48s7.82--
9:55 AM751727.23-4.34ssw8.69--
8:55 AM712027.91-2.61ssw5.21--
7:55 AM702229.4---2.61--
6:55 AM593732.77-1.74nne5.21--
5:55 AM534331.11-1.74nne6.08--
4:55 AM543929.61-2.61n5.21--
3:55 AM553829.86-0.87nne4.34--
2:55 AM563730.1-1.74ne5.21--
1:55 AM563629.43-1.74nne4.34--
12:55 AM573529.62-1.74nne5.21--
High: 80ºf @4:55 PM    Low: 45ºf @5:55 AM     Approx. Precipitation / Rain Total: in.
Time (PDT)Temp. (ºf)Humidity (%)Dew Point (ºf)Barometer (inHG)Wind Speed (mph)Wind DirectionWind Gust (mph)1hr. Precip / Rain Total (in.)Snow Depth
11:55 PM573328.19-2.61n5.21--
10:55 PM583228.31-2.61nne6.08--
9:55 PM593128.41-3.48n6.08--
8:55 PM602725.93-3.48n5.21--
7:55 PM671619.34-5.21wsw14.77--
6:55 PM711317.69-9.56wsw16.51--
5:55 PM761423.36-9.56wsw15.64--
4:55 PM801324.74-7.82wsw15.64--
3:55 PM801120.77-6.08wsw13.03--
2:55 PM791120.01-6.08sw13.03--
1:55 PM781017.03-5.21wsw13.03--
12:55 PM751014.75-6.08ssw10.43--
11:55 AM73910.86-4.34sw11.3--
10:55 AM701621.75-5.21sw10.43--
9:55 AM681822.92-3.48sw6.08--
8:55 AM652427.33-2.61ssw4.34--
7:55 AM592926.79-0.87n4.34--
6:55 AM504026.64-0.87nne6.08--
5:55 AM454323.86-2.61nne5.21--
4:55 AM474023.94-1.74nne6.95--
3:55 AM464324.77-2.61nne4.34--
2:55 AM474124.53-1.74ne6.08--
1:55 AM474023.94-1.74nne5.21--
12:55 AM474225.11-3.48n5.21--
High: 67ºf @2:55 PM    Low: 41ºf @4:55 AM     Approx. Precipitation / Rain Total: in.
Time (PDT)Temp. (ºf)Humidity (%)Dew Point (ºf)Barometer (inHG)Wind Speed (mph)Wind DirectionWind Gust (mph)1hr. Precip / Rain Total (in.)Snow Depth
11:55 PM475029.34-1.74nne6.08--
10:55 PM485030.26-3.48n6.08--
9:55 PM484929.76-3.48n6.95--
8:55 PM514429.86-1.74ne6.95--
7:55 PM553729.21-3.48n9.56--
6:55 PM612827.67-4.34ssw13.03--
5:55 PM632829.38-6.95sw15.64--
4:55 PM662327.14-6.08sw18.25--
3:55 PM662226.07-6.95sw18.25--
2:55 PM672530.02-6.95ssw18.25--
1:55 PM671517.84-6.95sw14.77--
12:55 PM642830.24-5.21sw11.3--
11:55 AM623634.74-4.34ssw10.43--
10:55 AM584737.88-6.08sw13.03--
9:55 AM565540.06-4.34sw8.69--
8:55 AM546040.43-1.74sse6.95--
7:55 AM516941.19-1.74ssw5.21--
6:55 AM466233.72-0.87ne4.34--
5:55 AM416630.53-2.61n4.34--
4:55 AM416831.26-1.74nne4.34--
3:55 AM416429.77-2.61n4.34--
2:55 AM426029.13-2.61n5.21--
1:55 AM426229.94-1.74n4.34--
12:55 AM436130.48-1.74nne4.34--
High: 68ºf @3:55 PM    Low: 44ºf @11:55 PM     Approx. Precipitation / Rain Total: in.
Time (PDT)Temp. (ºf)Humidity (%)Dew Point (ºf)Barometer (inHG)Wind Speed (mph)Wind DirectionWind Gust (mph)1hr. Precip / Rain Total (in.)Snow Depth
11:55 PM445629.32-1.74n5.21--
10:55 PM455429.37-5.21n6.95--
9:55 PM494528.59-1.74wsw6.08--
8:55 PM514228.72-5.21w8.69--
7:55 PM533828.08-5.21w13.03--
6:55 PM593329.94-8.69wsw13.9--
5:55 PM633031.08-8.69wsw16.51--
4:55 PM662630.13-8.69sw16.51--
3:55 PM682631.83-7.82wsw18.25--
2:55 PM672832.82-8.69sw15.64--
1:55 PM682429.86-8.69wsw18.25--
12:55 PM662932.83-6.08sw14.77--
11:55 AM643132.76-7.82sw15.64--
10:55 AM623936.76-4.34sw11.3--
9:55 AM594437.12-3.48ssw6.95--
8:55 AM574938.03-2.61sse4.34--
7:55 AM545437.73-0.87se3.48--
6:55 AM486737.57-0.87n4.34--
5:55 AM456634.33-1.74nne6.08--
4:55 AM456333.17-2.61n6.08--
3:55 AM456533.95-3.48n5.21--
2:55 AM456835.08-1.74nne4.34--
1:55 AM467137.13-1.74ne4.34--
12:55 AM477138.09-2.61n5.21--
High: 66ºf @1:55 PM    Low: 45ºf @5:55 AM     Approx. Precipitation / Rain Total: in.
Time (PDT)Temp. (ºf)Humidity (%)Dew Point (ºf)Barometer (inHG)Wind Speed (mph)Wind DirectionWind Gust (mph)1hr. Precip / Rain Total (in.)Snow Depth
11:55 PM467036.77-2.61n4.34--
10:55 PM505333.55-0.87nne7.82--
9:55 PM534632.78-4.34w9.56--
8:55 PM544734.23-6.08w9.56--
7:55 PM554936.19-5.21w11.3--
6:55 PM605141.82-6.95wsw13.03--
5:55 PM634943.53-6.95w14.77--
4:55 PM635144.58-7.82wsw16.51--
3:55 PM645246.02-7.82sw17.38--
2:55 PM635044.06-8.69sw15.64--
1:55 PM663940.33-5.21sw13.03--
12:55 PM634239.54-6.95sw13.03--
11:55 AM634742.45-6.08sw12.17--
10:55 AM605543.78-6.08wsw13.03--
9:55 AM586044.19-6.08sw11.3--
8:55 AM556945.02-6.08wsw10.43--
7:55 AM547646.61-5.21sw10.43--
6:55 AM498945.9-2.61n4.34--
5:55 AM459643.93-1.74nne4.34--
4:55 AM479445.36-2.61n5.21--
3:55 AM499146.49-2.61nnw3.48--
2:55 AM499447.35-0.87n4.34--
1:55 AM489245.79-2.61nnw4.34--
12:55 AM488944.91-2.61n6.08--
High: 62ºf @4:55 PM    Low: 48ºf @11:55 PM     Approx. Precipitation / Rain Total: in.
Time (PDT)Temp. (ºf)Humidity (%)Dew Point (ºf)Barometer (inHG)Wind Speed (mph)Wind DirectionWind Gust (mph)1hr. Precip / Rain Total (in.)Snow Depth
11:55 PM488443.4-4.34nnw6.95--
10:55 PM527443.97-5.21sw8.69--
9:55 PM546944.06-6.08wsw10.43--
8:55 PM556744.25-6.08w12.17--
7:55 PM576846.54-5.21sw12.17--
6:55 PM596948.84-6.08sw12.17--
5:55 PM606949.8-7.82wsw14.77--
4:55 PM626550.1-8.69wsw13.9--
3:55 PM626851.31-6.95wsw11.3--
2:55 PM617251.9-6.08wsw13.03--
1:55 PM617954.44-6.08w10.43--
12:55 PM589255.69-4.34wsw10.43--
11:55 AM569855.44-5.21w11.3--
10:55 AM5510055-5.21wsw12.17--
9:55 AM5510055-6.08wsw10.43--
8:55 AM5410054-6.95wsw11.3--
7:55 AM5410054-5.21wsw10.43--
6:55 AM5410054-4.34wsw7.82--
5:55 AM5410054-3.48sw7.82--
4:55 AM5410054-5.21sw8.69--
3:55 AM5510055-5.21sw9.56--
2:55 AM5510055-3.48wsw8.69--
1:55 AM5610056-4.34sw7.82--
12:55 AM579856.44-5.21sw8.69--
High: 76ºf @3:55 PM    Low: 54ºf @5:55 AM     Approx. Precipitation / Rain Total: in.
Time (PDT)Temp. (ºf)Humidity (%)Dew Point (ºf)Barometer (inHG)Wind Speed (mph)Wind DirectionWind Gust (mph)1hr. Precip / Rain Total (in.)Snow Depth
11:55 PM579756.16-5.21wsw8.69--
10:55 PM589355.99-2.61wsw9.56--
9:55 PM599056.07-4.34sw8.69--
8:55 PM608756.12-5.21sw11.3--
7:55 PM627654.34-6.95sw13.9--
6:55 PM676454.41-6.08sw15.64--
5:55 PM715654.5-9.56wsw15.64--
4:55 PM745054.16-8.69wsw14.77--
3:55 PM764854.87-7.82sw15.64--
2:55 PM764754.29-7.82sw14.77--
1:55 PM744752.47-7.82sw13.9--
12:55 PM734952.7-5.21sw11.3--
11:55 AM695552.15-6.08ssw11.3--
10:55 AM686254.48-5.21ssw9.56--
9:55 AM666855.13-4.34sw6.95--
8:55 AM627855.06-2.61ssw5.21--
7:55 AM608154.15-1.74ssw3.48--
6:55 AM568451.23---2.61--
5:55 AM548549.59-1.74n4.34--
4:55 AM558349.93-0.87ne4.34--
3:55 AM577950.55-0.87nne4.34--
2:55 AM578251.56-0.87ne3.48--
1:55 AM568250.58-2.61n4.34--
12:55 AM577950.55-1.74nne3.48--
High: 81ºf @2:55 PM    Low: 56ºf @5:55 AM     Approx. Precipitation / Rain Total: in.
Time (PDT)Temp. (ºf)Humidity (%)Dew Point (ºf)Barometer (inHG)Wind Speed (mph)Wind DirectionWind Gust (mph)1hr. Precip / Rain Total (in.)Snow Depth
11:55 PM607451.69---4.34--
10:55 PM597450.72-2.61n3.48--
9:55 PM607351.32-2.61nw3.48--
8:55 PM655950.32-2.61wsw6.08--
7:55 PM695250.63-3.48sw11.3--
6:55 PM744551.29-6.95sw13.03--
5:55 PM783447.34-6.95wsw14.77--
4:55 PM802944.86-7.82wsw13.9--
3:55 PM802642.01-6.95sw13.9--
2:55 PM812945.72-6.08sw13.03--
1:55 PM793145.76-7.82sw13.03--
12:55 PM792944.01-5.21sw13.03--
11:55 AM783245.73-5.21sw10.43--
10:55 AM782438.27-2.61ssw5.21--
9:55 AM743141.43-1.74s6.08--
8:55 AM723844.99-0.87sse3.48--
7:55 AM664544.04---2.61--
6:55 AM594939.87-1.74ne3.48--
5:55 AM565439.59-1.74nne4.34--
4:55 AM584938.95-2.61n5.21--
3:55 AM575440.52-1.74nne3.48--
2:55 AM585039.47-1.74nne3.48--
1:55 AM585039.47-1.74nne4.34--
12:55 AM594839.34-1.74nne4.34--
High: 83ºf @3:55 PM    Low: 55ºf @5:55 AM     Approx. Precipitation / Rain Total: in.
Time (PDT)Temp. (ºf)Humidity (%)Dew Point (ºf)Barometer (inHG)Wind Speed (mph)Wind DirectionWind Gust (mph)1hr. Precip / Rain Total (in.)Snow Depth
11:55 PM604940.78-1.74ne4.34--
10:55 PM614438.93-0.87nne5.21--
9:55 PM614438.93-0.87nne5.21--
8:55 PM664544.04-1.74wnw8.69--
7:55 PM694043.66-6.08w11.3--
6:55 PM743544.6-7.82wsw13.9--
5:55 PM773345.67-8.69wsw15.64--
4:55 PM813147.49-8.69wsw15.64--
3:55 PM832745.54-7.82wsw15.64--
2:55 PM822643.71-9.56sw18.25--
1:55 PM803045.76-8.69sw16.51--
12:55 PM783548.11-7.82ssw13.03--
11:55 AM764452.49-3.48ssw7.82--
10:55 AM744651.89-3.48s6.95--
9:55 AM705653.57-2.61sw5.21--
8:55 AM646953.62-2.61ssw6.08--
7:55 AM655548.43---2.61--
6:55 AM576645.75---3.48--
5:55 AM556844.63-1.74ne3.48--
4:55 AM566644.8-1.74nne4.34--
3:55 AM576244.11-1.74nne4.34--
2:55 AM576244.11-1.74nne4.34--
1:55 AM566444-2.61n5.21--
12:55 AM576043.25-0.87n2.61--
High: 84ºf @3:55 PM    Low: 50ºf @5:55 AM     Approx. Precipitation / Rain Total: in.
Time (PDT)Temp. (ºf)Humidity (%)Dew Point (ºf)Barometer (inHG)Wind Speed (mph)Wind DirectionWind Gust (mph)1hr. Precip / Rain Total (in.)Snow Depth
11:55 PM595844.24-0.87nne3.48--
10:55 PM624942.62-0.87ne3.48--
9:55 PM644743.36-0.87nw4.34--
8:55 PM675148.27-1.74sse9.56--
7:55 PM695049.58-5.21w12.17--
6:55 PM754049.02-7.82wsw14.77--
5:55 PM803247.47-9.56wsw13.9--
4:55 PM832240.21-7.82wsw14.77--
3:55 PM842342.19-8.69wsw14.77--
2:55 PM832442.46-7.82wsw13.9--
1:55 PM841734.48-8.69w13.9--
12:55 PM793548.99-7.82ssw12.17--
11:55 AM773849.43-5.21sw9.56--
10:55 AM724951.78-4.34ssw7.82--
9:55 AM685651.71-1.74s5.21--
8:55 AM646451.57-1.74sse4.34--
7:55 AM607351.32-1.74sw3.48--
6:55 AM528447.32-1.74nne4.34--
5:55 AM509047.18-1.74ne5.21--
4:55 AM508946.89-2.61n4.34--
3:55 AM519248.76-1.74nne3.48--
2:55 AM529249.75-1.74nne3.48--
1:55 AM529149.45-0.87nne4.34--
12:55 AM529650.89-1.74nne4.34--
High: 70ºf @4:55 PM    Low: 49ºf @12:55 AM     Approx. Precipitation / Rain Total: in.
Time (PDT)Temp. (ºf)Humidity (%)Dew Point (ºf)Barometer (inHG)Wind Speed (mph)Wind DirectionWind Gust (mph)1hr. Precip / Rain Total (in.)Snow Depth
11:55 PM519349.05-1.74n5.21--
10:55 PM529350.04-2.61n3.48--
9:55 PM548850.53-1.74wnw6.95--
8:55 PM587851.18-2.61wsw11.3--
7:55 PM616950.75-4.34wsw13.03--
6:55 PM656151.22-7.82wsw13.03--
5:55 PM685651.71-7.82sw14.77--
4:55 PM705352.07-7.82sw16.51--
3:55 PM705352.07-8.69sw16.51--
2:55 PM705251.55-8.69sw15.64--
1:55 PM685450.72-6.95sw13.9--
12:55 PM665750.32-6.08sw13.03--
11:55 AM636551.04-5.21sw10.43--
10:55 AM617151.53-3.48w6.08--
9:55 AM597852.15-2.61sw5.21--
8:55 AM588051.86-2.61sw5.21--
7:55 AM578351.89-1.74ssw4.34--
6:55 AM559152.42-1.74n4.34--
5:55 AM549452.31-1.74nw2.61--
4:55 AM549853.45-0.87nnw2.61--
3:55 AM549753.17-1.74nnw3.48--
2:55 AM549452.31-1.74nw4.34--
1:55 AM539752.17-1.74w4.34--
12:55 AM499647.91-1.74nnw3.48--
High: 73ºf @4:55 PM    Low: 50ºf @11:55 PM     Approx. Precipitation / Rain Total: in.
Time (PDT)Temp. (ºf)Humidity (%)Dew Point (ºf)Barometer (inHG)Wind Speed (mph)Wind DirectionWind Gust (mph)1hr. Precip / Rain Total (in.)Snow Depth
11:55 PM509548.62-1.74n3.48--
10:55 PM519549.62-2.61nw4.34--
9:55 PM549151.43-2.61w6.08--
8:55 PM578251.56-3.48wsw10.43--
7:55 PM607552.05-6.08wsw14.77--
6:55 PM646551.99-8.69wsw14.77--
5:55 PM695552.15-7.82wsw16.51--
4:55 PM734751.56-7.82sw15.64--
3:55 PM734650.98-6.95sw13.03--
2:55 PM724851.22-5.21sw10.43--
1:55 PM705452.58-6.08sw12.17--
12:55 PM666152.16-5.21ssw11.3--
11:55 AM646551.99-4.34ssw8.69--
10:55 AM617452.65-4.34sw7.82--
9:55 AM588152.2-4.34sw6.95--
8:55 AM578652.85-2.61wsw5.21--
7:55 AM568852.49-2.61wsw4.34--
6:55 AM569153.41-1.74nw3.48--
5:55 AM559152.42-0.87nne4.34--
4:55 AM559252.72-1.74nnw4.34--
3:55 AM559353.01-1.74nnw4.34--
2:55 AM549452.31-1.74n4.34--
1:55 AM549552.6-2.61n4.34--
12:55 AM559653.88-1.74wnw5.21--
High: 73ºf @2:55 PM    Low: 50ºf @4:55 AM     Approx. Precipitation / Rain Total: in.
Time (PDT)Temp. (ºf)Humidity (%)Dew Point (ºf)Barometer (inHG)Wind Speed (mph)Wind DirectionWind Gust (mph)1hr. Precip / Rain Total (in.)Snow Depth
11:55 PM549753.17-2.61nnw5.21--
10:55 PM559754.16-2.61wsw7.82--
9:55 PM569253.71-4.34wsw10.43--
8:55 PM588252.53-4.34wsw10.43--
7:55 PM617352.28-6.08wsw12.17--
6:55 PM656151.22-5.21sw13.9--
5:55 PM695250.63-8.69sw16.51--
4:55 PM724750.65-6.95sw14.77--
3:55 PM724650.07-7.82sw14.77--
2:55 PM733946.57-6.95wsw12.17--
1:55 PM714045.45-5.21sw13.03--
12:55 PM704346.46-5.21sw11.3--
11:55 AM694647.35-5.21sw10.43--
10:55 AM665348.37-4.34sw8.69--
9:55 AM645647.98-3.48sw7.82--
8:55 AM625545.64-2.61ssw6.08--
7:55 AM595944.69-1.74s4.34--
6:55 AM526641-1.74n5.21--
5:55 AM507040.61-0.87nne6.08--
4:55 AM506940.24-1.74n5.21--
3:55 AM507040.61-2.61n4.34--
2:55 AM517141.93-1.74nne3.48--
1:55 AM516941.19---3.48--
12:55 AM536441.15-0.87ne5.21--
High: 81ºf @2:55 PM    Low: 50ºf @5:55 AM     Approx. Precipitation / Rain Total: in.
Time (PDT)Temp. (ºf)Humidity (%)Dew Point (ºf)Barometer (inHG)Wind Speed (mph)Wind DirectionWind Gust (mph)1hr. Precip / Rain Total (in.)Snow Depth
11:55 PM546341.69-2.61n4.34--
10:55 PM546442.1-0.87-4.34--
9:55 PM575540.99-1.74nnw7.82--
8:55 PM634641.89-5.21wsw10.43--
7:55 PM653939.43-5.21wsw12.17--
6:55 PM703440.33-6.95wsw16.51--
5:55 PM743343.06-10.43wsw16.51--
4:55 PM782842.24-7.82wsw16.51--
3:55 PM792742.14-9.56sw18.25--
2:55 PM812642.86-8.69wsw13.9--
1:55 PM802742.99-6.95sw13.03--
12:55 PM782842.24-6.95sw12.17--
11:55 AM763445.59-5.21sw10.43--
10:55 AM743746.06-2.61sse6.08--
9:55 AM694848.48-2.61ssw6.08--
8:55 AM675047.74-2.61ssw4.34--
7:55 AM625847.05-0.87ene2.61--
6:55 AM536842.72-1.74nne3.48--
5:55 AM507442.04-1.74nne3.48--
4:55 AM517443.01-1.74nne4.34--
3:55 AM527544.32-1.74nne2.61--
2:55 AM537043.48-1.74n4.34--
1:55 AM546642.9-1.74nne3.48--
12:55 AM546341.69-1.74ne4.34--
High: 75ºf @4:55 PM    Low: 46ºf @4:55 AM     Approx. Precipitation / Rain Total: in.
Time (PDT)Temp. (ºf)Humidity (%)Dew Point (ºf)Barometer (inHG)Wind Speed (mph)Wind DirectionWind Gust (mph)1hr. Precip / Rain Total (in.)Snow Depth
11:55 PM555740.05-1.74n4.34--
10:55 PM556342.64-1.74nne4.34--
9:55 PM566845.59-0.87ne3.48--
8:55 PM567146.73-2.61nnw5.21--
7:55 PM616147.45-2.61nw8.69--
6:55 PM684948.12-4.34sw11.3--
5:55 PM724448.88-6.08sw14.77--
4:55 PM753847.65-7.82wsw14.77--
3:55 PM753545.47-8.69sw13.9--
2:55 PM744048.13-5.21sw11.3--
1:55 PM714548.58-6.08sw13.03--
12:55 PM675148.27-6.95ssw12.17--
11:55 AM645748.46-7.82sw11.3--
10:55 AM616247.88-3.48ssw7.82--
9:55 AM577348.43-2.61sw6.08--
8:55 AM528547.63-0.87nne4.34--
7:55 AM519148.47-1.74wnw4.34--
6:55 AM489747.19-1.74n5.21--
5:55 AM4710047-3.48nnw5.21--
4:55 AM469644.92-1.74n3.48--
3:55 AM489546.64-0.87n3.48--
2:55 AM499347.06-0.87ne4.34--
1:55 AM499347.06-2.61n4.34--
12:55 AM499046.2-2.61nne5.21--
High: 63ºf @3:55 PM    Low: 49ºf @11:55 PM     Approx. Precipitation / Rain Total: in.
Time (PDT)Temp. (ºf)Humidity (%)Dew Point (ºf)Barometer (inHG)Wind Speed (mph)Wind DirectionWind Gust (mph)1hr. Precip / Rain Total (in.)Snow Depth
11:55 PM498845.6-1.74n6.08--
10:55 PM528246.68-2.61nw8.69--
9:55 PM537946.66-3.48w10.43--
8:55 PM557647.57-5.21wsw11.3--
7:55 PM577448.79-6.08sw10.43--
6:55 PM596748.06-6.08sw12.17--
5:55 PM606447.78-6.08sw13.03--
4:55 PM616247.88-6.95wsw13.03--
3:55 PM635747.52-6.95wsw13.03--
2:55 PM635546.57-6.95wsw12.17--
1:55 PM635345.59-5.21wsw11.3--
12:55 PM606548.2-6.08sw9.56--
11:55 AM596848.45-2.61sw6.08--
10:55 AM577448.79---4.34--
9:55 AM559052.12-0.87sw3.48--
8:55 AM5110051-0.87wsw7.82--
7:55 AM5010050-4.34sw7.82--
6:55 AM5110051-3.48wsw7.82--
5:55 AM5110051-2.61sw6.95--
4:55 AM529550.61-0.87nne5.21--
3:55 AM529751.17-2.61wsw4.34--
2:55 AM529650.89-2.61n5.21--
1:55 AM539752.17-2.61sw5.21--
12:55 AM529650.89-1.74nnw5.21--
High: 64ºf @6:55 PM    Low: 52ºf @10:55 PM     Approx. Precipitation / Rain Total: in.
Time (PDT)Temp. (ºf)Humidity (%)Dew Point (ºf)Barometer (inHG)Wind Speed (mph)Wind DirectionWind Gust (mph)1hr. Precip / Rain Total (in.)Snow Depth
10:55 PM529550.61-1.74nw5.21--
9:55 PM549151.43-2.61wsw9.56--
8:55 PM578050.89-6.08wsw13.03--
7:55 PM607050.18-5.21sw15.64--
6:55 PM646049.83-7.82wsw13.9--
Past Weather Disclaimer Note regarding "Approx. Precipitation / Rain Total"

Currently

Fair 59°F
30.03in
Barometer
77%
Humidity
North 0.0mph
Wind
Fair

Past Weather Nearby

More Local Information

Bookmark and Share

Go Ad Free - Become a Member